createdAt,value
2019-05-13T00:03:48.177Z,38
2019-05-13T00:08:48.157Z,40
2019-05-13T00:13:48.522Z,39
2019-05-13T00:18:48.598Z,43
2019-05-13T00:23:48.394Z,40
2019-05-13T00:28:48.538Z,44
2019-05-13T00:33:48.573Z,52
2019-05-13T00:38:48.187Z,40
2019-05-13T00:43:48.635Z,38
2019-05-13T00:48:48.123Z,37
2019-05-13T00:53:48.407Z,35
2019-05-13T00:58:47.846Z,34
2019-05-13T01:03:48.363Z,34
2019-05-13T01:08:50.450Z,36
2019-05-13T01:13:47.549Z,33
2019-05-13T01:18:48.870Z,33
2019-05-13T01:23:48.032Z,31
2019-05-13T01:28:47.737Z,32
2019-05-13T01:33:48.698Z,34
2019-05-13T01:38:47.808Z,33
2019-05-13T01:43:48.325Z,32
2019-05-13T01:48:47.851Z,33
2019-05-13T01:53:48.207Z,30
2019-05-13T01:58:49.051Z,33
2019-05-13T02:03:48.427Z,33
2019-05-13T02:08:48.135Z,33
2019-05-13T02:13:48.810Z,31
2019-05-13T02:18:53.649Z,29
2019-05-13T02:23:48.493Z,34
2019-05-13T02:28:47.765Z,36
2019-05-13T02:33:48.680Z,33
2019-05-13T02:38:48.954Z,36
2019-05-13T02:43:56.644Z,36
2019-05-13T02:48:48.455Z,37
2019-05-13T02:53:52.250Z,40
2019-05-13T02:58:52.554Z,37
2019-05-13T03:03:52.652Z,33
2019-05-13T03:08:58.650Z,33
2019-05-13T03:13:48.823Z,32
2019-05-13T03:18:52.209Z,31
2019-05-13T03:23:52.442Z,30
2019-05-13T03:28:52.251Z,32
2019-05-13T03:34:05.402Z,31
2019-05-13T03:39:22.371Z,34
2019-05-13T03:43:49.061Z,38
2019-05-13T03:48:49.000Z,41
2019-05-13T03:53:49.467Z,33
2019-05-13T03:58:49.567Z,34
2019-05-13T04:03:52.734Z,34
2019-05-13T04:08:53.438Z,35
2019-05-13T04:13:52.254Z,32
2019-05-13T04:18:48.845Z,34
2019-05-13T04:23:48.976Z,30
2019-05-13T04:28:52.286Z,33
2019-05-13T04:33:53.077Z,31
2019-05-13T04:38:52.623Z,33
2019-05-13T04:43:53.557Z,32
2019-05-13T04:48:54.993Z,31
2019-05-13T04:53:53.192Z,27
2019-05-13T04:58:51.803Z,30
2019-05-13T05:03:57.144Z,26
2019-05-13T05:08:54.601Z,33
2019-05-13T05:13:51.747Z,28
2019-05-13T05:18:48.305Z,27
2019-05-13T05:23:48.483Z,44
2019-05-13T05:28:47.660Z,26
2019-05-13T05:33:47.343Z,28
2019-05-13T05:38:51.352Z,26
2019-05-13T05:43:52.162Z,24
2019-05-13T05:48:50.033Z,27
2019-05-13T05:53:48.459Z,33
2019-05-13T05:58:48.096Z,26
2019-05-13T06:03:47.967Z,27
2019-05-13T06:08:47.533Z,27
2019-05-13T06:13:51.269Z,24
2019-05-13T06:18:47.677Z,23
2019-05-13T06:23:48.062Z,27
2019-05-13T06:28:47.644Z,26
2019-05-13T06:33:48.404Z,21
2019-05-13T06:38:51.063Z,23
2019-05-13T06:43:48.062Z,24
2019-05-13T06:48:47.663Z,23
2019-05-13T06:53:47.659Z,22
2019-05-13T06:58:51.963Z,19
2019-05-13T07:03:48.074Z,18
2019-05-13T07:08:48.010Z,18
2019-05-13T07:13:48.454Z,17
2019-05-13T07:18:47.758Z,18
2019-05-13T07:23:51.837Z,16
2019-05-13T07:28:51.814Z,17
2019-05-13T07:33:48.822Z,21
2019-05-13T07:38:47.743Z,21
2019-05-13T07:43:48.872Z,20
2019-05-13T07:48:47.762Z,21
2019-05-13T07:53:48.769Z,23
2019-05-13T07:58:48.072Z,18
2019-05-13T08:03:48.381Z,18
2019-05-13T08:08:47.994Z,15
2019-05-13T08:13:51.388Z,19
2019-05-13T08:18:52.130Z,19
2019-05-13T08:23:52.149Z,16
2019-05-13T08:29:11.401Z,15
2019-05-13T08:33:48.644Z,17
2019-05-13T08:38:51.830Z,18
2019-05-13T08:43:48.053Z,15
2019-05-13T08:48:51.505Z,17
2019-05-13T08:53:48.690Z,21
2019-05-13T08:58:47.517Z,18
2019-05-13T09:03:47.966Z,16
2019-05-13T09:08:57.826Z,15
2019-05-13T09:13:55.622Z,16
2019-05-13T09:18:56.177Z,17
2019-05-13T09:23:55.623Z,18
2019-05-13T09:28:54.322Z,16
2019-05-13T09:33:56.063Z,14
2019-05-13T09:38:54.700Z,14
2019-05-13T09:43:55.576Z,18
2019-05-13T09:49:11.719Z,16
2019-05-13T09:53:55.945Z,17
2019-05-13T09:58:55.499Z,17
2019-05-13T10:04:07.236Z,13
2019-05-13T10:08:54.822Z,15
2019-05-13T10:13:55.491Z,16
2019-05-13T10:18:54.808Z,16
2019-05-13T10:23:57.955Z,16
2019-05-13T10:28:53.274Z,18
2019-05-13T10:33:55.595Z,19
2019-05-13T10:38:56.239Z,16
2019-05-13T10:43:56.065Z,18
2019-05-13T10:48:54.877Z,19
2019-05-13T10:53:59.381Z,17
2019-05-13T10:58:55.489Z,18
2019-05-13T11:03:56.486Z,25
2019-05-13T11:08:56.151Z,21
2019-05-13T11:14:21.332Z,20
2019-05-13T11:18:55.924Z,20
2019-05-13T11:23:56.141Z,24
2019-05-13T11:28:56.108Z,19
2019-05-13T11:33:56.054Z,21
2019-05-13T11:38:57.150Z,21
2019-05-13T11:44:22.734Z,18
2019-05-13T11:48:55.989Z,18
2019-05-13T11:53:55.143Z,18
2019-05-13T11:58:55.345Z,21
2019-05-13T12:03:55.403Z,18
2019-05-13T12:09:05.183Z,18
2019-05-13T12:13:58.869Z,19
2019-05-13T12:18:56.823Z,16
2019-05-13T12:23:57.026Z,17
2019-05-13T12:28:57.896Z,15
2019-05-13T12:33:56.639Z,20
2019-05-13T12:38:57.920Z,17
2019-05-13T12:43:57.981Z,17
2019-05-13T12:48:54.190Z,20
2019-05-13T12:53:57.017Z,19
2019-05-13T12:58:56.210Z,19
2019-05-13T13:03:54.196Z,19
2019-05-13T13:08:58.077Z,20
2019-05-13T13:14:20.750Z,20
2019-05-13T13:18:58.707Z,16
2019-05-13T13:23:54.265Z,18
2019-05-13T13:28:59.638Z,21
2019-05-13T13:34:06.480Z,22
2019-05-13T13:39:03.117Z,19
2019-05-13T13:43:58.137Z,17
2019-05-13T13:48:59.313Z,18
2019-05-13T13:54:00.368Z,19
2019-05-13T13:58:54.255Z,17
2019-05-13T14:03:57.246Z,18
2019-05-13T14:08:58.157Z,18
2019-05-13T14:13:55.909Z,18
2019-05-13T14:18:56.469Z,15
2019-05-13T14:24:02.589Z,18
2019-05-13T14:29:04.645Z,18
2019-05-13T14:34:02.933Z,18
2019-05-13T14:39:02.760Z,16
2019-05-13T14:44:00.049Z,16
2019-05-13T14:48:57.944Z,16
2019-05-13T14:54:02.454Z,15
2019-05-13T14:59:02.603Z,15
2019-05-13T15:04:02.117Z,17
2019-05-13T15:09:01.720Z,15
2019-05-13T15:14:02.362Z,14
2019-05-13T15:19:01.358Z,15
2019-05-13T15:24:02.189Z,17
2019-05-13T15:29:06.775Z,16
2019-05-13T15:34:02.472Z,17
2019-05-13T15:39:01.371Z,16
2019-05-13T15:44:03.070Z,17
2019-05-13T15:49:11.657Z,16
2019-05-13T15:54:06.885Z,16
2019-05-13T15:59:03.945Z,18
2019-05-13T16:04:02.356Z,17
2019-05-13T16:09:02.596Z,16
2019-05-13T16:14:02.057Z,20
2019-05-13T16:18:59.677Z,18
2019-05-13T16:24:04.527Z,49
2019-05-13T16:29:04.145Z,30
2019-05-13T16:34:03.845Z,20
2019-05-13T16:39:04.168Z,22
2019-05-13T16:44:01.499Z,56
2019-05-13T16:49:03.507Z,24
2019-05-13T16:54:01.471Z,23
2019-05-13T16:59:03.724Z,20
2019-05-13T17:04:04.016Z,27
2019-05-13T17:09:04.021Z,23
2019-05-13T17:14:02.005Z,22
2019-05-13T17:19:03.546Z,24
2019-05-13T17:24:03.589Z,26
2019-05-13T17:29:03.538Z,29
2019-05-13T17:34:03.636Z,31
2019-05-13T17:39:03.833Z,25
2019-05-13T17:44:02.374Z,27
2019-05-13T17:49:03.095Z,24
2019-05-13T17:54:03.556Z,27
2019-05-13T17:59:01.448Z,23
2019-05-13T18:04:02.374Z,26
2019-05-13T18:09:03.375Z,26
2019-05-13T18:14:03.377Z,25
2019-05-13T18:19:01.416Z,22
2019-05-13T18:24:03.425Z,24
2019-05-13T18:29:04.019Z,23
2019-05-13T18:34:03.681Z,25
2019-05-13T18:39:07.824Z,22
2019-05-13T18:44:05.485Z,25
2019-05-13T18:49:08.415Z,26
2019-05-13T18:54:05.333Z,28
2019-05-13T18:59:05.662Z,28
2019-05-13T19:04:04.037Z,30
2019-05-13T19:09:04.332Z,29
2019-05-13T19:14:03.193Z,27
2019-05-13T19:19:19.968Z,25
2019-05-13T19:24:04.158Z,28
2019-05-13T19:29:04.186Z,31
2019-05-13T19:34:05.592Z,24
2019-05-13T19:39:03.949Z,31
2019-05-13T19:44:09.821Z,28
2019-05-13T19:49:12.075Z,27
2019-05-13T19:54:11.544Z,36
2019-05-13T19:59:12.141Z,32
2019-05-13T20:04:10.506Z,32
2019-05-13T20:09:09.748Z,30
2019-05-13T20:14:11.494Z,35
2019-05-13T20:19:11.652Z,30
2019-05-13T20:24:07.914Z,32
2019-05-13T20:29:13.884Z,29
2019-05-13T20:34:11.783Z,28
2019-05-13T20:39:11.441Z,30
2019-05-13T20:44:09.727Z,31
2019-05-13T20:49:11.919Z,31
2019-05-13T20:54:11.324Z,30
2019-05-13T20:59:10.768Z,37
2019-05-13T21:04:12.273Z,32
2019-05-13T21:09:17.222Z,29
2019-05-13T21:14:10.743Z,34
2019-05-13T21:19:12.353Z,38
2019-05-13T21:24:10.695Z,34
2019-05-13T21:29:13.128Z,37
2019-05-13T21:34:11.801Z,41
2019-05-13T21:39:12.320Z,40
2019-05-13T21:44:11.866Z,38
2019-05-13T21:49:11.816Z,36
2019-05-13T21:54:15.960Z,46
2019-05-13T21:59:14.838Z,40
2019-05-13T22:04:16.538Z,33
2019-05-13T22:09:15.870Z,43
2019-05-13T22:14:17.485Z,42
2019-05-13T22:19:16.435Z,41
2019-05-13T22:24:15.794Z,49
2019-05-13T22:29:14.786Z,45
2019-05-13T22:34:16.243Z,39
2019-05-13T22:39:15.674Z,34
2019-05-13T22:44:17.656Z,29
2019-05-13T22:49:15.673Z,31
2019-05-13T22:54:16.054Z,27
2019-05-13T22:59:16.339Z,32
2019-05-13T23:04:15.687Z,35
2019-05-13T23:09:16.695Z,27
2019-05-13T23:14:21.823Z,32
2019-05-13T23:19:17.189Z,43
2019-05-13T23:24:15.458Z,37
2019-05-13T23:29:14.697Z,41
2019-05-13T23:34:16.209Z,44
2019-05-13T23:39:15.805Z,44
2019-05-13T23:44:36.390Z,40
2019-05-13T23:49:18.062Z,43
2019-05-13T23:54:16.406Z,32
2019-05-13T23:59:15.558Z,35
